Time;durP1;ratioP1;P1;durP2;ratioP2;P2;SDS_P1;SDS_P2;PMS_P1;PMS_P2;Temp;Humidity;BMP_temperature;BMP_pressure;BME280_temperature;BME280_humidity;BME280_pressure;Samples;Min_cycle;Max_cycle;Signal;HPM_P1;HPM_P2
2023/04/19 00:01:27;;;;;;;;;29.67;29.33;;;;;15.35;70.71;101248.31;5004094;28;45525;-82
2023/04/19 00:03:52;;;;;;;;;34.00;28.33;;;;;15.27;70.96;101243.81;5004092;28;45462;-83
2023/04/19 00:06:17;;;;;;;;;32.00;26.00;;;;;15.26;70.92;101244.72;4985511;28;45571;-82
2023/04/19 00:08:43;;;;;;;;;32.00;27.33;;;;;15.20;71.02;101249.16;4986728;28;45419;-82
2023/04/19 00:11:09;;;;;;;;;29.67;27.33;;;;;15.35;71.33;101237.59;5004006;28;45775;-82
2023/04/19 00:13:35;;;;;;;;;31.67;25.67;;;;;15.13;70.98;101230.41;5003985;28;45446;-82
2023/04/19 00:16:01;;;;;;;;;26.33;23.00;;;;;15.19;71.32;101254.53;5004516;28;45467;-82
2023/04/19 00:18:26;;;;;;;;;35.33;31.33;;;;;15.22;71.34;101256.31;4986302;28;45462;-82
2023/04/19 00:20:51;;;;;;;;;31.33;30.33;;;;;15.20;71.51;101262.56;4985324;28;48123;-81
2023/04/19 00:23:17;;;;;;;;;28.67;26.67;;;;;15.18;71.35;101252.72;4986273;28;45411;-82
2023/04/19 00:25:44;;;;;;;;;19.67;17.00;;;;;15.19;71.55;101258.09;4986446;28;45462;-82
2023/04/19 00:28:09;;;;;;;;;31.33;24.00;;;;;15.13;71.51;101254.53;5004536;28;45352;-82
2023/04/19 00:30:34;;;;;;;;;27.00;26.00;;;;;15.14;71.83;101249.13;4986861;28;47309;-81
2023/04/19 00:33:00;;;;;;;;;27.33;27.33;;;;;15.10;71.76;101250.03;4981239;28;45654;-82
2023/04/19 00:35:26;;;;;;;;;26.67;25.67;;;;;15.27;72.17;101250.09;4981175;28;45832;-82
2023/04/19 00:37:51;;;;;;;;;31.33;24.33;;;;;15.11;71.39;101257.19;4982085;28;45497;-82
2023/04/19 00:40:17;;;;;;;;;25.33;25.33;;;;;15.13;71.56;101251.84;4983624;28;45439;-82
2023/04/19 00:42:42;;;;;;;;;27.67;23.67;;;;;15.09;71.60;101244.66;4983131;28;45427;-82
2023/04/19 00:45:08;;;;;;;;;24.67;23.67;;;;;15.14;72.06;101251.81;4984152;28;45347;-82
2023/04/19 00:47:45;;;;;;;;;30.00;27.67;;;;;15.38;71.41;101261.72;4983681;28;45619;-82
2023/04/19 00:50:11;;;;;;;;;33.00;26.00;;;;;15.11;72.04;101258.97;4982795;28;47509;-81
2023/04/19 00:52:37;;;;;;;;;30.00;28.33;;;;;15.06;71.68;101258.94;4984588;28;45398;-81
2023/04/19 00:55:03;;;;;;;;;24.33;24.33;;;;;15.09;72.54;101260.72;4983237;28;45519;-81
2023/04/19 00:57:29;;;;;;;;;29.33;29.33;;;;;14.90;72.52;101249.06;4984887;28;45415;-81
2023/04/19 00:59:55;;;;;;;;;26.00;24.00;;;;;14.88;72.65;101243.69;4983224;28;47232;-81
2023/04/19 01:02:21;;;;;;;;;26.00;26.00;;;;;14.85;72.35;101251.72;4982783;28;45518;-82
2023/04/19 01:04:46;;;;;;;;;29.67;25.67;;;;;14.89;72.91;101250.84;4984435;28;45430;-81
2023/04/19 01:07:12;;;;;;;;;30.33;25.67;;;;;14.86;72.68;101242.78;4983144;28;45490;-81
2023/04/19 01:09:43;;;;;;;;;29.67;26.33;;;;;15.03;72.68;101245.53;4982421;28;47234;-81
2023/04/19 01:12:08;;;;;;;;;28.67;26.00;;;;;14.76;73.05;101235.59;4982493;28;45985;-80
2023/04/19 01:14:33;;;;;;;;;28.00;27.00;;;;;14.75;72.94;101239.19;4981111;28;45337;-82
2023/04/19 01:16:59;;;;;;;;;26.33;25.67;;;;;14.78;72.90;101241.84;4982804;28;45380;-81
2023/04/19 01:19:24;;;;;;;;;24.33;22.33;;;;;14.78;73.12;101244.53;4981743;28;47975;-82
2023/04/19 01:21:51;;;;;;;;;23.00;21.67;;;;;14.74;73.08;101238.25;4983819;28;45436;-81
2023/04/19 01:24:17;;;;;;;;;24.00;24.00;;;;;14.72;72.80;101236.47;4982597;28;45532;-82
2023/04/19 01:26:42;;;;;;;;;25.67;22.67;;;;;14.76;73.01;101236.47;4982070;28;45463;-82
2023/04/19 01:29:07;;;;;;;;;25.33;24.00;;;;;14.75;73.00;101241.84;4981818;28;46930;-81
2023/04/19 01:31:33;;;;;;;;;23.67;20.00;;;;;14.77;73.38;101237.41;4986347;28;45682;-81
2023/04/19 01:34:05;;;;;;;;;23.67;23.67;;;;;14.67;73.56;101241.81;4985032;28;45492;-81
2023/04/19 01:36:31;;;;;;;;;25.67;25.00;;;;;14.64;73.82;101231.06;5002946;28;45646;-81
2023/04/19 01:38:56;;;;;;;;;20.00;19.00;;;;;14.60;73.46;101219.47;4983934;28;48132;-82
2023/04/19 01:41:25;;;;;;;;;18.67;17.33;;;;;14.57;73.82;101231.94;5003189;28;45440;-82
2023/04/19 01:43:51;;;;;;;;;27.00;25.67;;;;;14.53;73.69;101233.66;5003431;28;45441;-81
2023/04/19 01:46:17;;;;;;;;;23.33;21.33;;;;;14.54;74.03;101231.88;4996250;28;45447;-81
2023/04/19 01:48:42;;;;;;;;;23.33;21.00;;;;;14.45;73.92;101232.72;5006553;28;45351;-82
2023/04/19 01:51:08;;;;;;;;;27.33;22.33;;;;;14.59;74.17;101227.50;5008782;28;45642;-82
2023/04/19 01:53:34;;;;;;;;;26.67;22.33;;;;;14.43;74.20;101229.16;5026248;28;45435;-82
2023/04/19 01:55:59;;;;;;;;;23.67;23.67;;;;;14.41;74.66;101225.56;5026073;28;45467;-82
2023/04/19 01:58:24;;;;;;;;;27.00;23.00;;;;;14.37;74.55;101219.28;5026903;28;45548;-82
2023/04/19 02:00:50;;;;;;;;;24.00;23.00;;;;;14.34;74.85;101215.69;5009112;28;45455;-82
2023/04/19 02:03:15;;;;;;;;;22.33;20.00;;;;;14.38;75.26;101220.19;5010592;28;45752;-81
2023/04/19 02:05:41;;;;;;;;;27.33;24.33;;;;;14.37;74.83;101221.09;5009002;28;45895;-81
2023/04/19 02:08:06;;;;;;;;;20.33;19.00;;;;;14.35;75.22;101218.38;5026344;28;45837;-82
2023/04/19 02:10:31;;;;;;;;;30.33;24.00;;;;;14.35;74.96;101222.84;5026937;28;45414;-81
2023/04/19 02:12:57;;;;;;;;;22.67;22.67;;;;;14.31;75.20;101221.03;5008405;28;45375;-81
2023/04/19 02:15:22;;;;;;;;;28.33;23.67;;;;;14.33;75.17;101224.63;5026396;28;45470;-81
2023/04/19 02:17:48;;;;;;;;;26.67;21.67;;;;;14.29;75.56;101218.34;5008564;28;47966;-82
2023/04/19 02:20:13;;;;;;;;;28.67;23.00;;;;;14.29;75.50;101213.00;5024398;28;45504;-82
2023/04/19 02:22:39;;;;;;;;;24.67;24.67;;;;;14.28;75.49;101221.94;5025937;28;45756;-82
2023/04/19 02:28:26;;;;;;;;;34.67;24.33;;;;;14.23;76.28;101222.78;5024441;28;45479;-81
2023/04/19 02:30:51;;;;;;;;;26.00;25.33;;;;;14.23;76.26;101225.44;5024817;28;45421;-81
2023/04/19 02:33:16;;;;;;;;;23.00;22.67;;;;;14.20;76.30;101229.00;5002794;28;45478;-81
2023/04/19 02:35:42;;;;;;;;;24.00;21.00;;;;;14.19;76.36;101228.09;5006122;28;45657;-82
2023/04/19 02:38:07;;;;;;;;;26.67;25.33;;;;;14.16;76.42;101221.84;5004460;28;45508;-81
2023/04/19 02:40:32;;;;;;;;;25.00;23.33;;;;;14.11;76.30;101228.94;5003880;28;45509;-82
2023/04/19 02:42:58;;;;;;;;;23.33;23.00;;;;;14.16;76.38;101227.19;5003569;28;45906;-81
2023/04/19 02:45:23;;;;;;;;;23.00;22.33;;;;;14.13;76.66;101236.06;5003812;28;45479;-82
2023/04/19 02:47:49;;;;;;;;;26.67;23.33;;;;;14.08;76.32;101221.78;5003420;28;47320;-82
2023/04/19 02:50:15;;;;;;;;;27.33;25.00;;;;;14.18;76.68;101230.78;5003070;28;45457;-82
2023/04/19 02:52:41;;;;;;;;;25.67;23.33;;;;;14.10;76.92;101236.06;5005793;28;45446;-81
2023/04/19 02:55:06;;;;;;;;;28.33;24.67;;;;;14.11;76.91;101232.50;5003850;28;45252;-81
2023/04/19 02:57:32;;;;;;;;;21.33;19.67;;;;;14.08;76.75;101224.47;5004061;28;46155;-81
2023/04/19 02:59:57;;;;;;;;;29.33;23.33;;;;;14.07;76.95;101228.00;5002326;28;45669;-81
2023/04/19 03:02:30;;;;;;;;;24.00;22.67;;;;;14.32;76.71;101228.16;5002244;28;45389;-81
2023/04/19 03:04:55;;;;;;;;;28.67;23.67;;;;;14.03;77.25;101230.66;5004557;28;45413;-81
2023/04/19 03:07:20;;;;;;;;;26.33;25.67;;;;;14.03;76.86;101231.53;5002173;28;46948;-82
2023/04/19 03:09:47;;;;;;;;;27.00;24.33;;;;;14.12;77.14;101230.75;5004872;28;45442;-81
2023/04/19 03:12:12;;;;;;;;;25.33;23.00;;;;;13.89;77.16;101231.41;5003076;28;45417;-82
2023/04/19 03:14:38;;;;;;;;;28.00;25.33;;;;;13.88;77.40;101226.97;5004151;28;45332;-81
2023/04/19 03:17:03;;;;;;;;;23.33;23.00;;;;;13.85;77.71;101220.69;5002192;28;47147;-81
2023/04/19 03:19:29;;;;;;;;;22.67;18.67;;;;;13.82;77.62;101231.38;5003233;28;45312;-82
2023/04/19 03:21:55;;;;;;;;;27.67;24.00;;;;;13.95;78.11;101227.91;5004385;28;45340;-81
2023/04/19 03:24:28;;;;;;;;;23.33;21.67;;;;;14.02;77.84;101224.41;5003724;28;45586;-82
2023/04/19 03:26:54;;;;;;;;;26.33;23.00;;;;;13.79;78.02;101226.88;5002315;28;47574;-81
2023/04/19 03:29:19;;;;;;;;;23.00;22.67;;;;;13.73;77.83;101216.13;5003986;28;45275;-82
2023/04/19 03:31:45;;;;;;;;;21.33;20.33;;;;;13.79;77.88;101227.81;5007284;28;45626;-82
2023/04/19 03:34:11;;;;;;;;;23.33;22.33;;;;;13.89;77.92;101226.06;5007073;28;45576;-81
2023/04/19 03:36:38;;;;;;;;;29.67;24.67;;;;;13.77;78.41;101237.56;5007113;28;48451;-81
2023/04/19 03:39:03;;;;;;;;;27.00;24.00;;;;;13.74;78.20;101234.88;5024375;28;45398;-81
2023/04/19 03:41:28;;;;;;;;;25.00;23.67;;;;;13.65;78.54;101221.41;5023421;28;45434;-81
2023/04/19 03:43:54;;;;;;;;;27.33;25.00;;;;;13.69;78.89;101236.59;5006269;28;45439;-81
2023/04/19 03:46:20;;;;;;;;;23.67;22.33;;;;;13.79;79.06;101226.88;5004526;28;48236;-82
2023/04/19 03:48:46;;;;;;;;;29.00;25.00;;;;;13.69;79.38;101233.91;5025019;28;45433;-81
2023/04/19 03:51:13;;;;;;;;;32.00;27.00;;;;;13.57;79.46;101229.38;5002434;28;45503;-82
2023/04/19 03:53:38;;;;;;;;;28.00;26.33;;;;;13.57;79.69;101233.81;5005589;28;44897;-81
2023/04/19 03:56:04;;;;;;;;;26.00;19.33;;;;;13.55;79.77;101227.56;5005196;28;49883;-81
2023/04/19 03:58:29;;;;;;;;;23.67;23.67;;;;;13.47;80.32;101227.50;5016191;28;45356;-82
2023/04/19 04:00:55;;;;;;;;;22.33;20.33;;;;;13.42;80.53;101217.66;4986608;28;45350;-82
2023/04/19 04:03:20;;;;;;;;;21.33;21.33;;;;;13.40;80.47;101214.94;4987663;28;45492;-82
2023/04/19 04:05:45;;;;;;;;;26.00;24.33;;;;;13.42;80.99;101231.00;4986074;28;47158;-81
2023/04/19 04:08:12;;;;;;;;;23.33;19.33;;;;;13.36;80.97;101216.69;5004258;28;45443;-81
2023/04/19 04:10:38;;;;;;;;;22.33;21.00;;;;;13.34;81.00;101226.47;4984960;28;45848;-81
2023/04/19 04:13:04;;;;;;;;;21.67;20.67;;;;;13.36;81.08;101221.16;4986640;28;46035;-81
2023/04/19 04:15:29;;;;;;;;;31.33;29.67;;;;;13.30;81.50;101219.28;5003492;28;45553;-82
2023/04/19 04:17:55;;;;;;;;;26.67;22.67;;;;;13.28;81.58;101218.34;5003680;28;44903;-81
2023/04/19 04:20:20;;;;;;;;;25.33;25.33;;;;;13.29;81.78;101216.56;4986184;28;45361;-82
2023/04/19 04:22:47;;;;;;;;;28.33;27.00;;;;;13.44;82.00;101223.91;4985965;28;45420;-82
2023/04/19 04:25:14;;;;;;;;;28.00;25.33;;;;;13.30;82.04;101216.63;5002042;28;45413;-82
2023/04/19 04:27:41;;;;;;;;;19.00;18.33;;;;;13.20;82.20;101215.59;5004101;28;45317;-82
2023/04/19 04:30:07;;;;;;;;;27.33;26.00;;;;;13.27;82.24;101221.91;5004156;28;45500;-81
2023/04/19 04:32:34;;;;;;;;;23.67;21.00;;;;;13.23;82.11;101217.44;5002168;28;45399;-81
2023/04/19 04:35:06;;;;;;;;;26.67;21.33;;;;;13.36;82.31;101219.34;4985829;28;48048;-81
2023/04/19 04:37:34;;;;;;;;;22.33;21.00;;;;;13.26;82.19;101224.56;5004266;28;45744;-81
2023/04/19 04:40:02;;;;;;;;;20.00;16.33;;;;;13.26;82.91;101228.13;5004894;28;45516;-81
2023/04/19 04:42:30;;;;;;;;;22.33;20.33;;;;;13.18;82.33;101227.16;4984712;28;45527;-80
2023/04/19 04:44:56;;;;;;;;;29.33;26.33;;;;;13.20;82.60;101230.72;4983905;28;47058;-81
2023/04/19 04:47:22;;;;;;;;;25.00;24.00;;;;;13.16;82.83;101226.22;5003169;28;45694;-82
2023/04/19 04:49:47;;;;;;;;;26.00;24.33;;;;;13.05;82.95;101214.53;5003398;28;45783;-83
2023/04/19 04:52:13;;;;;;;;;32.33;29.33;;;;;13.16;82.82;101234.25;4985231;28;45447;-82
2023/04/19 04:54:38;;;;;;;;;24.00;24.00;;;;;13.09;nan;101222.59;5002817;28;45427;-82
2023/04/19 04:57:03;;;;;;;;;24.00;23.67;;;;;13.15;83.09;101232.47;4985390;28;45750;-82
2023/04/19 04:59:29;;;;;;;;;29.00;25.67;;;;;13.17;83.67;101236.06;4985120;28;45486;-82
2023/04/19 05:01:54;;;;;;;;;28.67;24.33;;;;;13.15;83.14;101228.00;4985325;28;45402;-82
2023/04/19 05:04:20;;;;;;;;;21.00;21.00;;;;;13.13;83.08;101223.53;4986106;28;47196;-81
2023/04/19 05:06:45;;;;;;;;;26.00;26.00;;;;;13.17;83.22;101226.25;4984963;28;45299;-82
2023/04/19 05:09:11;;;;;;;;;22.00;19.33;;;;;13.20;83.11;101231.63;5002936;28;45471;-81
2023/04/19 05:11:36;;;;;;;;;30.00;28.00;;;;;13.16;83.07;101224.44;5003962;28;45673;-81
2023/04/19 05:14:02;;;;;;;;;22.67;19.33;;;;;13.25;83.16;101245.03;5003751;28;45991;-82
2023/04/19 05:16:28;;;;;;;;;26.00;23.33;;;;;13.16;83.37;101234.25;4986865;28;45432;-82
2023/04/19 05:18:53;;;;;;;;;31.00;28.00;;;;;13.16;82.89;101239.59;4986273;28;45451;-82
2023/04/19 05:21:19;;;;;;;;;26.67;25.00;;;;;13.17;83.09;101239.63;4984194;28;45374;-81
2023/04/19 05:23:45;;;;;;;;;22.00;19.00;;;;;13.37;83.16;101247.88;4985759;28;47287;-82
2023/04/19 05:26:11;;;;;;;;;28.33;25.00;;;;;13.20;82.86;101252.09;4985785;28;45436;-82
2023/04/19 05:28:37;;;;;;;;;24.00;24.00;;;;;13.21;82.89;101244.09;4984370;28;46246;-82
2023/04/19 05:31:03;;;;;;;;;32.33;27.33;;;;;13.17;82.80;101239.63;5003316;28;45420;-82
2023/04/19 05:33:28;;;;;;;;;29.33;24.67;;;;;13.23;83.10;101252.16;4987682;28;46331;-81
2023/04/19 05:35:54;;;;;;;;;29.00;25.33;;;;;13.24;82.85;101251.25;4984539;28;45567;-82
2023/04/19 05:38:19;;;;;;;;;28.67;25.00;;;;;13.25;82.69;101258.41;4966033;28;45449;-81
2023/04/19 05:40:45;;;;;;;;;25.67;20.33;;;;;13.29;82.93;101252.25;4984209;28;45515;-81
2023/04/19 05:43:10;;;;;;;;;23.00;21.67;;;;;13.33;82.92;101259.41;4984347;28;45892;-80
2023/04/19 05:45:36;;;;;;;;;32.33;26.00;;;;;13.33;82.00;101248.72;4968165;28;45556;-82
2023/04/19 05:48:01;;;;;;;;;26.67;23.67;;;;;13.35;81.89;101246.97;4986507;28;45511;-82
2023/04/19 05:50:26;;;;;;;;;28.67;27.33;;;;;13.42;82.17;101255.06;4984418;28;45512;-82
2023/04/19 05:52:52;;;;;;;;;30.00;26.67;;;;;13.50;81.64;101256.03;4990591;28;46918;-82
2023/04/19 05:55:18;;;;;;;;;25.67;25.00;;;;;13.75;81.05;101270.50;5003804;28;45427;-81
2023/04/19 05:57:44;;;;;;;;;27.67;26.33;;;;;13.57;80.75;101260.53;5002342;28;45379;-82
2023/04/19 06:00:10;;;;;;;;;29.67;27.33;;;;;13.70;80.26;101265.13;5002167;28;45477;-82
2023/04/19 06:02:35;;;;;;;;;27.33;25.00;;;;;13.66;80.20;101263.31;4991304;28;46623;-81
2023/04/19 06:05:03;;;;;;;;;32.33;26.67;;;;;13.76;79.88;101275.88;4966540;28;45854;-81
2023/04/19 06:07:29;;;;;;;;;23.67;23.67;;;;;13.80;79.30;101280.38;4984014;28;45484;-82
2023/04/19 06:09:55;;;;;;;;;25.33;23.00;;;;;13.78;78.97;101271.44;4983372;28;45486;-82
2023/04/19 06:12:20;;;;;;;;;28.67;26.67;;;;;13.89;80.17;101271.53;4963700;28;47126;-84
2023/04/19 06:14:45;;;;;;;;;31.00;26.00;;;;;14.03;79.41;101265.41;4974071;28;44798;-81
2023/04/19 06:17:13;;;;;;;;;33.00;30.33;;;;;14.07;77.61;101268.13;4988550;28;45643;-81
2023/04/19 06:19:38;;;;;;;;;31.33;25.33;;;;;14.17;77.83;101277.13;4989842;28;45364;-82
2023/04/19 06:22:03;;;;;;;;;28.00;27.67;;;;;14.28;78.11;101274.50;5002117;28;47267;-81
2023/04/19 06:24:29;;;;;;;;;27.67;25.67;;;;;14.39;76.51;101278.19;4995772;28;45430;-81
2023/04/19 06:26:56;;;;;;;;;30.00;29.00;;;;;14.45;76.08;101278.22;4988241;28;45392;-81
2023/04/19 06:29:22;;;;;;;;;31.67;31.00;;;;;14.30;76.28;101283.44;4988928;28;46434;-82
2023/04/19 06:31:47;;;;;;;;;35.33;30.33;;;;;14.30;75.69;101272.75;4992314;28;45592;-81
2023/04/19 06:34:13;;;;;;;;;34.00;28.67;;;;;14.36;76.56;101278.13;4996347;28;45883;-82
2023/04/19 06:36:38;;;;;;;;;26.67;24.67;;;;;14.48;77.02;101283.59;5013883;28;45509;-83
2023/04/19 06:39:04;;;;;;;;;29.00;25.00;;;;;14.53;74.75;101287.19;5017315;28;45494;-82
2023/04/19 06:41:30;;;;;;;;;25.67;25.00;;;;;14.55;75.21;101274.72;4996439;28;47740;-82
2023/04/19 06:43:55;;;;;;;;;31.00;27.67;;;;;14.54;73.97;101275.63;4999599;28;45518;-82
2023/04/19 06:46:20;;;;;;;;;31.00;30.33;;;;;14.60;74.85;101277.44;5006771;28;45855;-82
2023/04/19 06:48:46;;;;;;;;;33.00;29.33;;;;;14.70;75.19;101278.41;5006818;28;45615;-82
2023/04/19 06:51:11;;;;;;;;;30.00;26.33;;;;;14.84;73.85;101278.47;5021060;28;47837;-82
2023/04/19 06:53:37;;;;;;;;;28.00;24.67;;;;;14.95;73.22;101274.09;5010110;28;45470;-82
2023/04/19 06:56:03;;;;;;;;;31.67;30.67;;;;;15.07;74.13;101286.59;5008757;28;44731;-82
2023/04/19 06:58:31;;;;;;;;;28.33;27.00;;;;;15.12;73.25;101283.06;5014837;28;45292;-82
2023/04/19 07:00:57;;;;;;;;;26.00;25.33;;;;;15.15;71.92;101285.78;5027112;28;45813;-82
2023/04/19 07:03:22;;;;;;;;;34.33;29.67;;;;;15.15;72.76;101282.22;5027115;28;45434;-82
2023/04/19 07:05:48;;;;;;;;;30.67;29.00;;;;;15.16;71.95;101278.63;5009483;28;45507;-82
2023/04/19 07:08:14;;;;;;;;;25.00;21.67;;;;;15.23;71.87;101283.13;5027618;28;45383;-81
2023/04/19 07:10:42;;;;;;;;;30.00;29.00;;;;;15.27;71.39;101284.00;5001666;28;47310;-82
2023/04/19 07:13:07;;;;;;;;;31.33;31.00;;;;;15.32;71.94;101288.50;5011721;28;44846;-83
2023/04/19 07:15:32;;;;;;;;;28.00;27.00;;;;;15.32;70.71;101285.81;4992328;28;45360;-83
2023/04/19 07:17:58;;;;;;;;;31.67;26.67;;;;;15.38;71.67;101284.94;5012220;28;45369;-83
2023/04/19 07:20:24;;;;;;;;;26.67;25.33;;;;;15.21;70.68;101276.88;5010246;28;46554;-82
2023/04/19 07:22:50;;;;;;;;;26.67;25.00;;;;;15.29;70.81;101283.16;5008230;28;45389;-83
2023/04/19 07:25:15;;;;;;;;;32.33;29.33;;;;;15.33;70.81;101281.34;5017374;28;45499;-82
2023/04/19 07:27:40;;;;;;;;;34.67;31.33;;;;;15.36;70.57;101287.63;4995927;28;45394;-81
2023/04/19 07:30:06;;;;;;;;;35.33;31.33;;;;;15.46;71.35;101280.50;5011560;28;45294;-82
2023/04/19 07:32:35;;;;;;;;;31.00;30.33;;;;;15.55;70.76;101287.66;5000361;28;45616;-82
2023/04/19 07:35:07;;;;;;;;;32.67;26.00;;;;;15.73;70.89;101294.88;4990779;28;44749;-80
2023/04/19 07:37:33;;;;;;;;;36.33;31.33;;;;;15.84;69.95;101294.94;4976279;28;45420;-82
2023/04/19 07:40:05;;;;;;;;;31.33;31.00;;;;;16.09;69.74;101290.47;4988899;28;45411;-83
2023/04/19 07:42:32;;;;;;;;;34.33;30.00;;;;;15.90;69.01;101282.41;4988233;28;44793;-82
2023/04/19 07:45:20;;;;;;;;;;;;;;;;;;;;;
2023/04/19 07:47:46;;;;;;;;;37.67;33.33;;;;;16.10;70.44;101286.91;4988915;28;64999;-81
2023/04/19 07:50:12;;;;;;;;;37.33;32.67;;;;;16.06;69.02;101274.34;5001977;28;46810;-81
2023/04/19 07:53:18;;;;;;;;;31.50;28.50;;;;;16.47;68.17;101303.88;4970484;28;45769;-81
2023/04/19 07:55:43;;;;;;;;;31.00;24.33;;;;;16.16;68.23;101289.59;4987014;28;45526;-81
2023/04/19 07:58:10;;;;;;;;;38.67;30.33;;;;;16.22;68.51;101285.97;5002921;28;45315;-81
2023/04/19 08:00:36;;;;;;;;;32.33;29.00;;;;;16.23;68.47;101293.16;4978967;28;45073;-83
2023/04/19 08:03:02;;;;;;;;;27.00;24.67;;;;;16.25;68.01;101286.00;4985190;28;45511;-82
2023/04/19 08:05:30;;;;;;;;;33.67;33.33;;;;;16.42;68.10;101278.81;4986077;28;46079;-82
2023/04/19 08:07:55;;;;;;;;;30.00;27.67;;;;;16.34;67.31;101286.88;4987487;28;45729;-82
2023/04/19 08:10:21;;;;;;;;;31.67;29.33;;;;;16.37;68.92;101296.72;4989461;28;45411;-83
2023/04/19 08:12:48;;;;;;;;;35.00;30.67;;;;;16.42;67.71;101280.59;4984050;28;45466;-82
2023/04/19 08:15:13;;;;;;;;;35.33;32.67;;;;;16.36;66.92;101284.16;4988952;28;45289;-81
2023/04/19 08:17:42;;;;;;;;;36.67;31.67;;;;;16.52;68.06;101277.91;4989891;28;45352;-83
2023/04/19 08:20:13;;;;;;;;;33.00;28.33;;;;;16.62;67.74;101292.19;4984493;28;47046;-81
2023/04/19 08:22:40;;;;;;;;;28.67;28.67;;;;;16.71;68.43;101280.56;4989076;28;45349;-81
2023/04/19 08:25:15;;;;;;;;;29.67;26.33;;;;;17.03;69.48;101272.41;4987646;28;45249;-83
2023/04/19 08:27:40;;;;;;;;;33.67;30.33;;;;;16.98;66.81;101275.09;4971508;28;45474;-82
2023/04/19 08:30:11;;;;;;;;;34.00;30.67;;;;;17.08;66.09;101258.94;4991998;28;46120;-82
2023/04/19 08:32:36;;;;;;;;;24.00;23.00;;;;;17.14;66.03;101292.06;4990954;28;45684;-81
2023/04/19 08:35:03;;;;;;;;;30.00;26.67;;;;;17.14;65.94;101281.31;5010190;28;44773;-82
2023/04/19 08:37:31;;;;;;;;;22.33;19.67;;;;;17.18;66.27;101276.81;4992594;28;45303;-85
2023/04/19 08:40:06;;;;;;;;;34.33;31.67;;;;;17.26;65.23;101268.72;4991673;28;45635;-85
2023/04/19 08:42:41;;;;;;;;;31.33;25.00;;;;;16.99;65.27;101254.53;5005327;28;45406;-84
2023/04/19 08:45:07;;;;;;;;;26.00;24.00;;;;;17.04;65.51;101262.56;4989536;28;45514;-84
2023/04/19 08:47:34;;;;;;;;;28.00;28.00;;;;;17.25;64.41;101285.75;5006424;28;45847;-81
2023/04/19 08:50:05;;;;;;;;;27.67;24.67;;;;;17.20;64.95;101269.66;4983185;28;47282;-83
2023/04/19 08:52:34;;;;;;;;;32.00;30.67;;;;;17.20;65.06;101250.84;4994000;28;45481;-81
2023/04/19 08:55:15;;;;;;;;;35.00;30.67;;;;;17.53;65.31;101278.41;4995577;28;44790;-82
2023/04/19 08:57:40;;;;;;;;;29.33;27.00;;;;;17.17;64.89;101249.06;4994163;28;45441;-84
2023/04/19 09:00:08;;;;;;;;;33.00;26.67;;;;;17.51;65.34;101277.53;5003150;28;45474;-83
2023/04/19 09:02:57;;;;;;;;;28.33;27.00;;;;;17.89;65.14;101297.97;4993075;28;45854;-84
2023/04/19 09:05:28;;;;;;;;;34.33;29.00;;;;;17.63;65.91;101261.31;4992349;28;45445;-83
2023/04/19 09:07:53;;;;;;;;;28.00;27.00;;;;;17.80;65.71;101269.28;4990874;28;44915;-81
2023/04/19 09:10:20;;;;;;;;;28.00;27.33;;;;;17.89;65.16;101245.03;4992007;28;46427;-80
2023/04/19 09:13:03;;;;;;;;;21.67;18.00;;;;;18.19;65.08;101241.16;4984257;28;45446;-80
2023/04/19 09:15:39;;;;;;;;;25.33;23.33;;;;;18.28;64.68;101258.16;5005891;28;45579;-80
2023/04/19 09:18:21;;;;;;;;;;;;;;;;;;;;;
2023/04/19 09:20:48;;;;;;;;;27.33;25.33;;;;;18.23;63.12;101276.16;4991175;28;75111;-82
2023/04/19 09:23:17;;;;;;;;;31.33;27.00;;;;;18.15;62.61;101285.19;5004606;28;45441;-82
2023/04/19 09:26:05;;;;;;;;;28.00;25.00;;;;;18.17;62.91;101261.81;4981085;28;44781;-82
2023/04/19 09:28:57;;;;;;;;;32.67;30.00;;;;;17.97;61.92;101234.19;5007198;28;46087;-83
2023/04/19 09:31:24;;;;;;;;;29.00;26.67;;;;;18.01;62.39;101262.00;4990350;28;46962;-82
2023/04/19 09:33:52;;;;;;;;;30.00;28.33;;;;;17.98;62.39;101257.53;4987268;28;45356;-82
2023/04/19 09:36:32;;;;;;;;;33.00;32.00;;;;;18.30;61.96;101262.63;4966160;28;45409;-81
2023/04/19 09:38:58;;;;;;;;;29.33;26.00;;;;;18.13;63.58;101253.81;4968681;28;45451;-83
2023/04/19 09:41:25;;;;;;;;;28.67;27.67;;;;;18.32;63.93;101244.66;4977935;28;47101;-81
2023/04/19 09:44:09;;;;;;;;;29.00;26.33;;;;;18.67;61.06;101251.47;4984456;28;45383;-82
2023/04/19 09:46:36;;;;;;;;;30.67;27.67;;;;;18.54;61.02;101250.72;4975032;28;45397;-81
2023/04/19 09:52:23;;;;;;;;;33.67;32.00;;;;;18.48;61.64;101240.00;4986127;28;45652;-81
2023/04/19 09:54:52;;;;;;;;;32.33;24.67;;;;;18.58;62.19;101236.31;4987277;28;44980;-81
2023/04/19 09:57:18;;;;;;;;;35.00;31.00;;;;;18.65;62.29;101238.94;4983220;28;45532;-82
2023/04/19 09:59:43;;;;;;;;;30.33;28.00;;;;;18.70;60.63;101245.13;4984887;28;45494;-81
2023/04/19 10:02:12;;;;;;;;;27.67;25.33;;;;;18.93;61.83;101237.72;4986284;28;48080;-82
2023/04/19 10:04:41;;;;;;;;;29.67;27.33;;;;;18.78;60.60;101224.38;4984609;28;45365;-82
2023/04/19 10:07:07;;;;;;;;;26.33;22.00;;;;;18.83;61.28;101229.78;4978115;28;44910;-80
2023/04/19 10:09:35;;;;;;;;;25.00;23.67;;;;;18.96;62.16;101226.88;4970665;28;45316;-82
2023/04/19 10:12:03;;;;;;;;;26.67;26.00;;;;;19.10;61.73;101229.41;4971187;28;48397;-81
2023/04/19 10:14:34;;;;;;;;;24.33;24.33;;;;;19.23;61.66;101227.44;4967938;28;45346;-82
2023/04/19 10:17:00;;;;;;;;;28.33;24.67;;;;;19.05;60.16;101220.50;4956990;28;44923;-82
2023/04/19 10:19:27;;;;;;;;;23.33;22.33;;;;;19.04;58.96;101221.41;4974478;28;45441;-82
2023/04/19 10:21:55;;;;;;;;;30.67;26.33;;;;;19.07;58.32;101231.28;4978752;28;48360;-83
2023/04/19 10:24:22;;;;;;;;;28.67;28.00;;;;;19.06;59.35;101216.88;4979283;28;45250;-84
2023/04/19 10:27:12;;;;;;;;;23.33;22.33;;;;;19.45;60.27;101219.03;4975980;28;45417;-81
2023/04/19 10:29:55;;;;;;;;;28.33;24.00;;;;;19.56;60.64;101215.25;4996230;28;44848;-82
2023/04/19 10:32:25;;;;;;;;;23.33;22.00;;;;;19.38;59.45;101216.41;4983776;28;46441;-82
2023/04/19 10:35:03;;;;;;;;;30.00;28.00;;;;;19.46;59.61;101200.13;5011197;28;45147;-83
2023/04/19 10:38:16;;;;;;;;;23.67;21.33;;;;;19.85;59.52;101213.03;5016743;28;45462;-82
2023/04/19 10:40:51;;;;;;;;;18.67;18.67;;;;;19.74;58.43;101199.72;5009273;28;45006;-82
2023/04/19 10:43:17;;;;;;;;;24.00;23.33;;;;;19.53;60.04;101206.31;4993423;28;48056;-81
2023/04/19 10:45:44;;;;;;;;;21.00;21.00;;;;;19.51;59.49;101197.34;5010930;28;45395;-82
2023/04/19 10:48:34;;;;;;;;;22.00;22.00;;;;;19.89;57.62;101207.53;5014051;28;45399;-83
2023/04/19 10:51:20;;;;;;;;;28.33;24.67;;;;;19.82;58.08;101199.59;4993791;28;45353;-82
2023/04/19 10:54:00;;;;;;;;;23.67;23.33;;;;;19.83;59.03;101194.16;4998095;28;48030;-82
2023/04/19 10:56:42;;;;;;;;;26.00;22.33;;;;;19.84;56.36;101203.16;5013327;28;44846;-83
2023/04/19 11:00:02;;;;;;;;;20.33;18.67;;;;;19.73;57.15;101203.31;4985191;28;44920;-80
2023/04/19 11:02:29;;;;;;;;;20.33;19.67;;;;;19.37;57.81;101182.28;4923371;28;45358;-83
2023/04/19 11:05:07;;;;;;;;;27.00;23.33;;;;;19.62;58.76;101171.09;4901490;28;47311;-83
2023/04/19 11:07:36;;;;;;;;;26.33;19.67;;;;;19.80;58.60;101178.03;4934176;28;45539;-82
2023/04/19 11:10:05;;;;;;;;;23.33;22.67;;;;;19.72;58.10;101175.47;4934672;28;44876;-83
2023/04/19 11:16:00;;;;;;;;;21.00;19.00;;;;;19.63;55.10;101153.97;4929197;28;44906;-84
2023/04/19 11:18:31;;;;;;;;;21.67;19.67;;;;;19.86;57.54;101144.66;4910841;28;45889;-84
2023/04/19 11:21:00;;;;;;;;;16.67;15.00;;;;;19.94;56.42;101180.50;4927720;28;45716;-83
2023/04/19 11:23:26;;;;;;;;;17.00;17.00;;;;;19.95;56.54;101150.75;4911417;28;45533;-84
2023/04/19 11:25:52;;;;;;;;;16.33;16.33;;;;;20.04;55.53;101170.44;4912183;28;47018;-83